Time;durP1;ratioP1;P1;durP2;ratioP2;P2;SDS_P1;SDS_P2;PMS_P1;PMS_P2;Temp;Humidity;BMP_temperature;BMP_pressure;BME280_temperature;BME280_humidity;BME280_pressure;Samples;Min_cycle;Max_cycle;Signal;HPM_P1;HPM_P2
2023/08/19 00:01:34;;;;;;;;;30.67;25.67;;;;;28.11;64.23;100575.34;5035446;28;45497;-66
2023/08/19 00:04:00;;;;;;;;;31.00;25.33;;;;;28.07;64.13;100561.25;5036298;28;45623;-66
2023/08/19 00:06:39;;;;;;;;;27.00;24.33;;;;;28.10;64.70;100568.25;5036667;28;45541;-65
2023/08/19 00:09:06;;;;;;;;;28.00;27.00;;;;;27.94;65.08;100554.22;5037695;28;45764;-66
2023/08/19 00:11:32;;;;;;;;;28.00;25.67;;;;;28.01;64.92;100571.63;5037114;28;45595;-66
2023/08/19 00:13:58;;;;;;;;;29.67;27.33;;;;;28.03;64.74;100573.22;5036819;28;45402;-64
2023/08/19 00:16:24;;;;;;;;;29.33;26.33;;;;;28.02;64.78;100573.31;5036953;28;45557;-67
2023/08/19 00:18:50;;;;;;;;;28.00;24.33;;;;;28.03;64.93;100577.75;5036274;28;45538;-64
2023/08/19 00:21:16;;;;;;;;;28.67;27.67;;;;;27.99;64.76;100573.56;5035418;28;46435;-67
2023/08/19 00:23:41;;;;;;;;;26.00;25.33;;;;;28.02;64.86;100578.72;5035444;28;45483;-65
2023/08/19 00:26:07;;;;;;;;;28.67;24.33;;;;;28.03;65.03;100588.53;5036898;28;45548;-66
2023/08/19 00:28:33;;;;;;;;;26.33;25.00;;;;;28.00;64.65;100594.13;5035579;28;45471;-66
2023/08/19 00:31:02;;;;;;;;;28.00;27.67;;;;;28.00;64.33;100603.06;5036211;28;45529;-67
2023/08/19 00:33:27;;;;;;;;;27.33;25.67;;;;;27.97;64.73;100602.41;5035975;28;45545;-66
2023/08/19 00:35:53;;;;;;;;;28.00;26.00;;;;;27.91;64.39;100603.75;5037456;28;45516;-64
2023/08/19 00:38:18;;;;;;;;;25.00;24.67;;;;;27.90;64.71;100602.88;5036672;28;45438;-67
2023/08/19 00:40:44;;;;;;;;;30.33;25.67;;;;;27.88;64.97;100598.56;5042450;28;45415;-64
2023/08/19 00:43:09;;;;;;;;;29.33;25.33;;;;;27.86;64.70;100587.94;5042690;28;45351;-64
2023/08/19 00:45:40;;;;;;;;;31.33;28.00;;;;;27.88;64.60;100601.25;5041347;28;45431;-63
2023/08/19 00:48:06;;;;;;;;;29.33;26.33;;;;;27.90;64.42;100600.19;5041854;28;46686;-65
2023/08/19 00:50:32;;;;;;;;;29.67;25.00;;;;;27.92;64.15;100598.22;5043425;28;45299;-64
2023/08/19 00:52:58;;;;;;;;;26.67;24.67;;;;;27.82;63.77;100589.09;5043312;28;45394;-64
2023/08/19 00:55:24;;;;;;;;;32.00;30.00;;;;;27.76;64.28;100585.97;5042726;28;45393;-66
2023/08/19 00:57:50;;;;;;;;;31.00;26.67;;;;;27.75;63.91;100587.81;5042657;28;46183;-67
2023/08/19 01:00:16;;;;;;;;;29.00;23.33;;;;;27.84;63.87;100597.94;5042978;28;45444;-64
2023/08/19 01:02:42;;;;;;;;;28.33;27.67;;;;;27.81;64.07;100587.38;5043909;28;45400;-65
2023/08/19 01:05:08;;;;;;;;;28.00;27.33;;;;;27.76;63.53;100584.13;5042935;28;45496;-65
2023/08/19 01:07:53;;;;;;;;;29.00;28.00;;;;;27.82;64.01;100593.59;5042378;28;45962;-65
2023/08/19 01:10:48;;;;;;;;;27.67;24.00;;;;;27.74;64.09;100588.78;5042195;28;45441;-65
2023/08/19 01:13:15;;;;;;;;;25.67;24.33;;;;;27.75;64.19;100600.41;5042717;28;46426;-65
2023/08/19 01:15:57;;;;;;;;;26.67;26.00;;;;;27.75;63.66;100592.34;5038856;28;45600;-64
2023/08/19 01:18:24;;;;;;;;;26.00;24.33;;;;;27.79;63.96;100601.91;5041994;28;45585;-64
2023/08/19 01:20:53;;;;;;;;;26.33;26.33;;;;;27.76;63.59;100605.66;5041492;28;45363;-64
2023/08/19 01:23:40;;;;;;;;;22.67;22.00;;;;;27.74;63.50;100595.97;5058393;28;45419;-65
2023/08/19 01:26:06;;;;;;;;;25.33;24.67;;;;;27.71;63.62;100599.75;5028548;28;45623;-65
2023/08/19 01:28:32;;;;;;;;;24.67;24.00;;;;;27.70;63.71;100609.66;5042321;28;45477;-64
2023/08/19 01:30:58;;;;;;;;;28.67;25.00;;;;;27.76;63.52;100610.19;5042709;28;45419;-65
2023/08/19 01:33:24;;;;;;;;;29.00;26.00;;;;;27.70;63.51;100608.81;5042068;28;45516;-66
2023/08/19 01:36:01;;;;;;;;;27.00;23.33;;;;;27.75;63.33;100627.31;5042877;28;45412;-63
2023/08/19 01:38:43;;;;;;;;;25.00;23.75;;;;;27.79;62.86;100627.00;5042602;28;45403;-64
2023/08/19 01:41:09;;;;;;;;;28.50;22.75;;;;;27.81;63.09;100630.44;5041465;28;45507;-64
2023/08/19 01:43:36;;;;;;;;;24.00;24.00;;;;;27.82;62.67;100623.22;5042416;28;45474;-64
2023/08/19 01:46:02;;;;;;;;;23.67;20.67;;;;;27.87;62.74;100632.69;5041731;28;45466;-64
2023/08/19 01:48:28;;;;;;;;;29.75;23.75;;;;;27.82;62.85;100623.22;5041619;28;45782;-64
2023/08/19 01:50:53;;;;;;;;;24.67;22.00;;;;;27.95;62.19;100640.22;5039774;28;45460;-65
2023/08/19 01:53:19;;;;;;;;;24.00;21.33;;;;;27.90;62.44;100624.41;5038708;28;45494;-62
2023/08/19 01:55:44;;;;;;;;;25.75;23.50;;;;;27.97;62.19;100637.41;5038459;28;45449;-64
2023/08/19 01:58:10;;;;;;;;;26.50;21.25;;;;;27.97;62.05;100635.56;5038294;28;45440;-63
2023/08/19 02:00:35;;;;;;;;;21.50;20.75;;;;;28.03;62.15;100647.75;5038610;28;45463;-64
2023/08/19 02:03:07;;;;;;;;;24.00;22.33;;;;;28.00;61.78;100645.25;5039191;28;45892;-63
2023/08/19 02:05:33;;;;;;;;;21.50;21.50;;;;;28.03;61.19;100636.97;5037731;28;45481;-64
2023/08/19 02:07:58;;;;;;;;;25.67;24.67;;;;;28.08;60.35;100650.97;5038331;28;45537;-66
2023/08/19 02:10:24;;;;;;;;;22.25;20.75;;;;;28.08;60.15;100646.44;5037890;28;45559;-64
2023/08/19 02:12:49;;;;;;;;;21.50;19.75;;;;;28.05;60.03;100645.81;5038641;28;45367;-65
2023/08/19 02:15:15;;;;;;;;;24.75;22.25;;;;;28.10;59.71;100649.03;5038104;28;45434;-63
2023/08/19 02:17:40;;;;;;;;;20.50;19.00;;;;;28.07;58.78;100646.53;5038430;28;45531;-64
2023/08/19 02:20:07;;;;;;;;;19.00;18.75;;;;;28.08;58.75;100656.34;5039208;28;45361;-67
2023/08/19 02:22:32;;;;;;;;;19.75;18.00;;;;;28.10;58.48;100649.88;5040174;28;45266;-64
2023/08/19 02:24:58;;;;;;;;;20.75;18.25;;;;;28.05;57.81;100651.19;5039238;28;45501;-64
2023/08/19 02:27:24;;;;;;;;;22.00;19.25;;;;;28.11;57.58;100656.13;5038651;28;45589;-65
2023/08/19 02:29:50;;;;;;;;;21.50;20.50;;;;;28.11;57.46;100661.50;5037771;28;45600;-63
2023/08/19 02:32:15;;;;;;;;;18.50;16.50;;;;;28.11;57.78;100661.50;5037634;28;45509;-64
2023/08/19 02:34:41;;;;;;;;;19.75;17.75;;;;;28.10;57.70;100660.66;5037639;28;45313;-62
2023/08/19 02:37:06;;;;;;;;;19.75;19.00;;;;;28.12;57.38;100671.31;5038230;28;45427;-63
2023/08/19 02:39:32;;;;;;;;;19.75;18.25;;;;;28.07;57.11;100668.06;5037244;28;45358;-64
2023/08/19 02:41:57;;;;;;;;;17.25;15.00;;;;;28.07;56.85;100670.75;5039423;28;45468;-63
2023/08/19 02:44:23;;;;;;;;;18.50;17.75;;;;;28.12;56.92;100682.94;5038078;28;45497;-64
2023/08/19 02:46:48;;;;;;;;;21.50;19.00;;;;;28.10;56.64;100679.50;5037789;28;45553;-64
2023/08/19 02:49:14;;;;;;;;;20.25;18.75;;;;;28.09;56.61;100680.44;5038026;28;45416;-63
2023/08/19 02:51:40;;;;;;;;;19.75;18.50;;;;;28.05;56.91;100678.97;5037780;28;45470;-64
2023/08/19 02:54:05;;;;;;;;;19.50;17.00;;;;;28.06;56.53;100677.13;5037000;28;45541;-63
2023/08/19 02:56:32;;;;;;;;;17.50;16.75;;;;;27.92;56.47;100668.22;5036506;28;45497;-63
2023/08/19 02:58:58;;;;;;;;;18.75;16.75;;;;;27.99;56.63;100683.94;5035961;28;45392;-63
2023/08/19 03:01:23;;;;;;;;;20.00;16.25;;;;;28.03;56.48;100691.69;5036826;28;45542;-62
2023/08/19 03:03:49;;;;;;;;;16.75;16.25;;;;;28.02;56.88;100691.78;5038255;28;45316;-63
2023/08/19 03:06:14;;;;;;;;;19.00;17.50;;;;;27.99;56.47;100683.94;5037380;28;46174;-63
2023/08/19 03:08:40;;;;;;;;;17.00;15.75;;;;;27.91;56.61;100679.09;5037486;28;45855;-62
2023/08/19 03:11:06;;;;;;;;;21.00;17.50;;;;;27.91;56.81;100687.19;5036237;28;45557;-62
2023/08/19 03:13:31;;;;;;;;;17.75;16.75;;;;;27.93;57.04;100693.31;5038272;28;45528;-66
2023/08/19 03:16:00;;;;;;;;;16.25;15.75;;;;;27.86;56.72;100682.13;5037385;28;45378;-68
2023/08/19 03:18:27;;;;;;;;;17.25;16.50;;;;;27.90;56.75;100694.41;5037675;28;45428;-68
2023/08/19 03:20:59;;;;;;;;;18.00;17.25;;;;;27.92;56.48;100705.88;5037351;28;45458;-68
2023/08/19 03:23:26;;;;;;;;;17.25;16.25;;;;;27.88;56.62;100709.78;5038862;28;45480;-69
2023/08/19 03:25:53;;;;;;;;;17.75;17.75;;;;;27.88;56.50;100706.22;5038763;28;46126;-67
2023/08/19 03:28:19;;;;;;;;;18.75;18.75;;;;;27.84;56.66;100710.13;5035514;28;45471;-65
2023/08/19 03:30:44;;;;;;;;;17.75;15.75;;;;;27.84;56.81;100712.81;5036792;28;45509;-67
2023/08/19 03:33:10;;;;;;;;;19.50;16.50;;;;;27.82;56.66;100709.31;5037363;28;45319;-68
2023/08/19 03:35:35;;;;;;;;;14.00;14.00;;;;;27.81;56.47;100716.56;5037618;28;45525;-68
2023/08/19 03:38:02;;;;;;;;;14.25;13.75;;;;;27.81;56.32;100724.63;5036733;28;45430;-65
2023/08/19 03:40:27;;;;;;;;;20.25;18.75;;;;;27.80;56.54;100720.19;5036471;28;45496;-68
2023/08/19 03:42:53;;;;;;;;;17.75;15.25;;;;;27.80;56.20;100730.97;5037039;28;45481;-67
2023/08/19 03:45:18;;;;;;;;;18.00;17.50;;;;;27.80;55.83;100722.88;5036633;28;45590;-65
2023/08/19 03:47:44;;;;;;;;;16.25;15.50;;;;;27.75;55.96;100722.34;5036179;28;45442;-62
2023/08/19 03:50:10;;;;;;;;;16.00;15.50;;;;;27.77;55.43;100736.56;5036675;28;45497;-63
2023/08/19 03:52:36;;;;;;;;;19.75;17.75;;;;;27.76;55.24;100732.13;5036706;28;45426;-63
2023/08/19 03:55:01;;;;;;;;;14.50;13.25;;;;;27.76;55.02;100740.22;5036994;28;46061;-63
2023/08/19 03:57:27;;;;;;;;;16.00;14.25;;;;;27.74;54.69;100747.56;5036726;28;45505;-62
2023/08/19 03:59:52;;;;;;;;;16.50;15.25;;;;;27.70;54.55;100749.56;5037308;28;45354;-64
2023/08/19 04:02:18;;;;;;;;;16.00;13.00;;;;;27.65;54.77;100758.94;5037256;28;45421;-63
2023/08/19 04:04:59;;;;;;;;;16.00;15.50;;;;;27.65;55.10;100750.88;5036499;28;45513;-64
2023/08/19 04:07:24;;;;;;;;;16.25;15.25;;;;;27.66;55.04;100769.59;5037151;28;45613;-63
2023/08/19 04:09:50;;;;;;;;;13.75;13.25;;;;;27.66;54.55;100771.41;5037805;28;45579;-63
2023/08/19 04:12:15;;;;;;;;;17.50;15.50;;;;;27.63;54.99;100772.50;5036594;28;45324;-63
2023/08/19 04:14:42;;;;;;;;;16.25;13.50;;;;;27.68;54.50;100772.19;5036140;28;46446;-62
2023/08/19 04:17:07;;;;;;;;;15.25;14.75;;;;;27.66;54.67;100784.88;5053416;28;45372;-62
2023/08/19 04:19:33;;;;;;;;;15.25;15.00;;;;;27.69;54.40;100790.03;5038388;28;45503;-63
2023/08/19 04:21:58;;;;;;;;;11.75;11.75;;;;;27.69;54.43;100795.41;5036958;28;45538;-63
2023/08/19 04:24:24;;;;;;;;;15.50;14.75;;;;;27.62;54.25;100789.63;5036172;28;45555;-64
2023/08/19 04:26:50;;;;;;;;;13.25;13.25;;;;;27.52;54.19;100779.59;5036190;28;45502;-62
2023/08/19 04:29:15;;;;;;;;;17.75;16.25;;;;;27.62;54.02;100803.06;5035057;28;46301;-64
2023/08/19 04:31:41;;;;;;;;;15.00;14.25;;;;;27.62;54.44;100813.84;5037231;28;45790;-62
2023/08/19 04:34:06;;;;;;;;;14.25;14.25;;;;;27.62;54.31;100815.63;5036323;28;46679;-62
2023/08/19 04:36:32;;;;;;;;;13.00;13.00;;;;;27.51;54.11;100796.69;5036148;28;45420;-63
2023/08/19 04:38:57;;;;;;;;;14.25;14.00;;;;;27.59;54.30;100821.25;5037397;28;45425;-62
2023/08/19 04:41:23;;;;;;;;;15.75;15.75;;;;;27.56;53.87;100827.69;5037114;28;45478;-64
2023/08/19 04:43:48;;;;;;;;;13.50;12.50;;;;;27.54;54.11;100832.31;5035893;28;45462;-63
2023/08/19 04:46:14;;;;;;;;;11.00;11.00;;;;;27.42;53.46;100812.47;5036326;28;45283;-63
2023/08/19 04:48:39;;;;;;;;;14.75;13.50;;;;;27.54;53.81;100835.00;5035998;28;45514;-63
2023/08/19 04:51:05;;;;;;;;;13.00;12.25;;;;;27.54;53.73;100831.47;5036164;28;45437;-64
2023/08/19 04:53:31;;;;;;;;;14.75;11.50;;;;;27.52;53.90;100838.75;5036324;28;46454;-65
2023/08/19 04:56:02;;;;;;;;;81.25;73.25;;;;;27.53;54.64;100844.06;5036199;28;45477;-64
2023/08/19 04:58:28;;;;;;;;;138.00;126.33;;;;;27.54;54.53;100851.13;5036377;28;45381;-64
2023/08/19 05:00:53;;;;;;;;;81.00;69.25;;;;;27.49;54.37;100851.44;5036655;28;45441;-64
2023/08/19 05:03:19;;;;;;;;;46.00;38.00;;;;;27.52;54.29;100858.44;5035542;28;45836;-64
2023/08/19 05:05:45;;;;;;;;;29.00;26.00;;;;;27.50;53.78;100860.38;5036601;28;45687;-64
2023/08/19 05:08:10;;;;;;;;;19.25;16.75;;;;;27.51;53.42;100854.03;5035901;28;45528;-63
2023/08/19 05:10:36;;;;;;;;;14.00;13.00;;;;;27.45;53.30;100846.38;5035951;28;45635;-64
2023/08/19 05:13:02;;;;;;;;;10.00;9.00;;;;;27.51;53.59;100859.44;5035951;28;46406;-62
2023/08/19 05:15:27;;;;;;;;;15.75;11.75;;;;;27.53;52.91;100862.88;5035363;28;45437;-63
2023/08/19 05:17:53;;;;;;;;;14.50;11.00;;;;;27.51;53.32;100866.66;5035673;28;45764;-65
2023/08/19 05:20:19;;;;;;;;;21.75;17.00;;;;;27.48;52.90;100871.25;5051233;28;45924;-63
2023/08/19 05:22:44;;;;;;;;;14.75;14.25;;;;;27.48;53.03;100878.47;5036425;28;46087;-63
2023/08/19 05:25:10;;;;;;;;;16.25;16.25;;;;;27.47;53.75;100876.72;5037196;28;45333;-64
2023/08/19 05:27:36;;;;;;;;;14.25;13.25;;;;;27.47;53.44;100882.97;5039389;28;45364;-64
2023/08/19 05:30:04;;;;;;;;;11.50;10.25;;;;;27.48;53.47;100878.47;5039875;28;45524;-63
2023/08/19 05:32:30;;;;;;;;;11.50;11.50;;;;;27.46;53.19;100883.09;5038930;28;46379;-64
2023/08/19 05:34:55;;;;;;;;;11.75;9.75;;;;;27.46;53.62;100889.31;5038889;28;45534;-63
2023/08/19 05:37:21;;;;;;;;;9.75;9.75;;;;;27.43;53.24;100885.97;5038619;28;45470;-68
2023/08/19 05:39:47;;;;;;;;;15.00;9.00;;;;;27.41;53.01;100885.22;5039858;28;45355;-67
2023/08/19 05:42:12;;;;;;;;;9.75;9.50;;;;;27.46;52.74;100902.78;5054198;28;46905;-65
2023/08/19 05:44:38;;;;;;;;;9.50;8.00;;;;;27.44;52.89;100899.31;5039855;28;45335;-63
2023/08/19 05:47:04;;;;;;;;;10.00;8.00;;;;;27.48;53.04;100910.75;5039889;28;45474;-64
2023/08/19 05:49:29;;;;;;;;;8.75;8.75;;;;;27.48;53.42;100914.28;5040509;28;45505;-64
2023/08/19 05:51:55;;;;;;;;;11.25;9.50;;;;;27.50;52.79;100908.78;5040416;28;46574;-64
2023/08/19 05:54:21;;;;;;;;;9.00;8.25;;;;;27.47;52.73;100909.00;5040380;28;45799;-64
2023/08/19 05:57:37;;;;;;;;;8.25;8.00;;;;;27.48;52.96;100914.28;5034146;28;45422;-63
2023/08/19 06:00:03;;;;;;;;;7.75;7.75;;;;;27.47;52.41;100917.94;5016301;28;45521;-62
2023/08/19 06:02:28;;;;;;;;;8.25;8.25;;;;;27.47;52.57;100912.56;4992477;28;45731;-62
2023/08/19 06:04:57;;;;;;;;;8.75;7.25;;;;;27.48;52.57;100916.13;5027553;28;45487;-63
2023/08/19 06:07:26;;;;;;;;;12.50;10.00;;;;;27.49;52.66;100918.69;5039990;28;45324;-64
2023/08/19 06:09:52;;;;;;;;;7.50;7.50;;;;;27.50;52.52;100916.88;5038693;28;45310;-63
2023/08/19 06:12:17;;;;;;;;;7.75;7.75;;;;;27.51;52.30;100924.00;5038701;28;46159;-63
2023/08/19 06:14:42;;;;;;;;;9.25;8.00;;;;;27.55;52.23;100924.63;5039300;28;45509;-64
2023/08/19 06:17:08;;;;;;;;;11.00;8.00;;;;;27.57;52.51;100931.63;5038344;28;45469;-63
2023/08/19 06:19:34;;;;;;;;;9.00;8.00;;;;;27.55;52.25;100932.69;5039025;28;45643;-63
2023/08/19 06:21:59;;;;;;;;;8.00;8.00;;;;;27.55;52.17;100943.47;5038352;28;45548;-65
2023/08/19 06:24:25;;;;;;;;;7.25;7.25;;;;;27.52;52.07;100938.28;5037028;28;45373;-67
2023/08/19 06:26:50;;;;;;;;;10.25;8.50;;;;;27.59;51.75;100955.75;5038624;28;45448;-64
2023/08/19 06:29:16;;;;;;;;;6.50;6.50;;;;;27.58;51.97;100956.72;5038457;28;45299;-63
2023/08/19 06:31:41;;;;;;;;;7.50;5.50;;;;;27.57;51.93;100958.53;5053957;28;46741;-64
2023/08/19 06:34:07;;;;;;;;;7.00;7.00;;;;;27.59;51.57;100966.53;5037828;28;45387;-64
2023/08/19 06:36:37;;;;;;;;;7.00;7.00;;;;;27.52;52.05;100971.44;5036864;28;45319;-64
2023/08/19 06:39:07;;;;;;;;;7.75;7.75;;;;;27.55;51.32;100982.00;5037908;28;45768;-65
2023/08/19 06:41:39;;;;;;;;;6.25;6.00;;;;;27.54;51.58;101003.63;5039511;28;46206;-63
2023/08/19 06:44:07;;;;;;;;;7.00;6.80;;;;;27.32;51.98;100959.28;5031631;28;45446;-64
2023/08/19 06:46:33;;;;;;;;;6.00;4.00;;;;;27.49;52.11;100993.16;5038440;28;45437;-63
2023/08/19 06:49:00;;;;;;;;;8.00;6.75;;;;;27.39;52.31;100987.53;5038588;28;45406;-63
2023/08/19 06:51:27;;;;;;;;;5.25;5.25;;;;;27.47;52.03;100995.94;5037372;28;46200;-63
2023/08/19 06:53:53;;;;;;;;;7.00;6.00;;;;;27.47;52.22;100989.72;5038058;28;45398;-64
2023/08/19 06:56:28;;;;;;;;;5.40;5.40;;;;;27.47;52.19;101004.00;5020303;28;45417;-64
2023/08/19 06:59:12;;;;;;;;;7.00;5.00;;;;;27.48;52.28;101003.06;5038226;28;45514;-62
2023/08/19 07:01:48;;;;;;;;;4.80;4.60;;;;;27.43;51.86;100998.94;5037588;28;45354;-66
2023/08/19 07:04:16;;;;;;;;;8.00;7.20;;;;;27.50;52.02;101005.63;5035365;28;45368;-65
2023/08/19 07:06:42;;;;;;;;;5.50;5.50;;;;;27.49;51.77;101014.69;5037424;28;45646;-65
2023/08/19 07:09:11;;;;;;;;;6.00;6.00;;;;;27.44;51.73;101014.13;5038302;28;45513;-65
2023/08/19 07:11:37;;;;;;;;;7.00;7.00;;;;;27.43;51.84;101032.09;5037897;28;45493;-63
2023/08/19 07:14:03;;;;;;;;;6.00;6.00;;;;;27.43;52.08;101021.34;5037812;28;45532;-65
2023/08/19 07:16:33;;;;;;;;;6.20;6.20;;;;;27.40;51.91;101010.75;5037378;28;45508;-63
2023/08/19 07:19:05;;;;;;;;;8.75;7.25;;;;;27.40;52.26;101026.88;5037641;28;45944;-67
2023/08/19 07:21:34;;;;;;;;;5.75;5.75;;;;;27.42;51.88;101013.34;5039622;28;45540;-64
2023/08/19 07:24:01;;;;;;;;;6.20;6.20;;;;;27.46;52.13;101004.13;5039478;28;45381;-66
2023/08/19 07:26:28;;;;;;;;;6.80;5.40;;;;;27.42;52.21;100999.91;5039769;28;45438;-66
2023/08/19 07:28:54;;;;;;;;;6.50;5.25;;;;;27.47;51.81;101006.69;5037654;28;45585;-67
2023/08/19 07:31:24;;;;;;;;;6.00;5.00;;;;;27.28;52.00;100992.72;5038008;28;45396;-65
2023/08/19 07:33:50;;;;;;;;;7.80;7.80;;;;;27.39;52.49;101014.41;5037299;28;45307;-64
2023/08/19 07:36:15;;;;;;;;;6.00;5.00;;;;;27.46;51.78;101036.41;5037731;28;45444;-64
2023/08/19 07:38:50;;;;;;;;;5.75;4.75;;;;;27.36;52.35;101027.19;5038443;28;45557;-64
2023/08/19 07:41:24;;;;;;;;;8.75;6.75;;;;;27.47;52.28;101063.19;5036951;28;46554;-65
2023/08/19 07:43:50;;;;;;;;;5.00;5.00;;;;;27.42;52.11;101075.22;5038336;28;45425;-66
2023/08/19 07:46:15;;;;;;;;;6.75;4.25;;;;;27.20;52.61;101041.63;5036955;28;45215;-65
2023/08/19 07:48:44;;;;;;;;;5.00;5.00;;;;;27.30;52.78;101074.16;5036936;28;45704;-67
2023/08/19 07:51:11;;;;;;;;;6.00;4.25;;;;;27.33;52.70;101063.19;5036547;28;46627;-68
2023/08/19 07:53:36;;;;;;;;;5.20;5.20;;;;;27.26;52.58;101057.38;5037143;28;45464;-64
2023/08/19 07:56:02;;;;;;;;;5.00;5.00;;;;;27.24;52.75;101074.53;5037001;28;45436;-66
2023/08/19 07:58:27;;;;;;;;;5.00;4.00;;;;;27.14;52.86;101095.72;5037110;28;45296;-68
2023/08/19 08:00:53;;;;;;;;;6.00;5.00;;;;;27.12;52.99;101113.78;5037379;28;46156;-65
2023/08/19 08:03:19;;;;;;;;;5.25;4.75;;;;;27.07;53.35;101126.63;5036483;28;45415;-64
2023/08/19 08:05:44;;;;;;;;;4.25;4.00;;;;;27.05;53.49;101150.06;5036638;28;45327;-63
2023/08/19 08:08:10;;;;;;;;;4.00;4.00;;;;;26.94;53.96;101147.16;5037019;28;45450;-64
2023/08/19 08:10:35;;;;;;;;;3.75;3.75;;;;;26.83;54.27;101121.78;5036636;28;45445;-63
2023/08/19 08:13:01;;;;;;;;;7.25;5.50;;;;;26.85;54.61;101146.75;5037203;28;45350;-64
2023/08/19 08:15:26;;;;;;;;;4.50;4.50;;;;;26.87;54.38;101170.84;5036737;28;45434;-65
2023/08/19 08:17:52;;;;;;;;;5.00;5.00;;;;;26.85;54.68;101205.00;5037472;28;45472;-64
2023/08/19 08:20:18;;;;;;;;;7.25;6.00;;;;;26.73;55.94;101211.13;5037709;28;45260;-63
2023/08/19 08:22:44;;;;;;;;;4.60;4.00;;;;;26.74;55.97;101223.59;5036634;28;45457;-63
2023/08/19 08:25:10;;;;;;;;;7.25;5.50;;;;;26.70;56.53;101216.69;5032745;28;45532;-63
2023/08/19 08:27:35;;;;;;;;;6.00;5.25;;;;;26.67;56.41;101204.25;5038354;28;46730;-64
2023/08/19 08:30:01;;;;;;;;;6.00;6.00;;;;;26.64;56.30;101197.25;5036429;28;45494;-63
2023/08/19 08:32:27;;;;;;;;;6.00;6.00;;;;;26.53;56.60;101194.31;5035443;28;45367;-62
2023/08/19 08:34:53;;;;;;;;;7.75;5.50;;;;;26.47;56.72;101183.91;5036555;28;45476;-65
2023/08/19 08:37:20;;;;;;;;;4.75;4.00;;;;;26.43;57.38;101185.03;5036744;28;45613;-63
2023/08/19 08:39:45;;;;;;;;;6.00;5.00;;;;;26.32;57.64;101182.97;5035960;28;45683;-65
2023/08/19 08:42:11;;;;;;;;;5.75;5.25;;;;;26.32;57.38;101191.03;5036857;28;45452;-66
2023/08/19 08:44:37;;;;;;;;;7.50;6.50;;;;;26.25;58.11;101210.25;5035522;28;45236;-61
2023/08/19 08:47:03;;;;;;;;;5.00;4.50;;;;;26.21;59.11;101209.53;5026818;28;45348;-64
2023/08/19 08:49:29;;;;;;;;;7.25;6.25;;;;;26.07;58.81;101196.91;5035764;28;46272;-65
2023/08/19 08:51:56;;;;;;;;;7.50;5.00;;;;;25.92;59.80;101211.16;5036478;28;45565;-63
2023/08/19 08:54:23;;;;;;;;;4.25;4.25;;;;;25.91;60.09;101231.78;5034624;28;45444;-63
2023/08/19 08:56:49;;;;;;;;;4.75;4.75;;;;;25.97;59.65;101231.44;5036496;28;45449;-63
2023/08/19 08:59:16;;;;;;;;;5.75;5.25;;;;;25.96;60.86;101218.09;5035992;28;45402;-64
2023/08/19 09:01:46;;;;;;;;;6.50;6.00;;;;;26.06;59.90;101208.59;5039299;28;45319;-65
2023/08/19 09:04:15;;;;;;;;;5.75;5.25;;;;;26.10;59.87;101198.53;5040193;28;45584;-64
2023/08/19 09:06:42;;;;;;;;;8.25;5.50;;;;;26.07;59.16;101188.84;5039807;28;45481;-66
2023/08/19 09:09:12;;;;;;;;;6.25;6.25;;;;;26.14;59.89;101232.31;5039580;28;45776;-64
2023/08/19 09:11:41;;;;;;;;;7.25;6.00;;;;;26.18;60.34;101234.75;5039405;28;45323;-66
2023/08/19 09:14:37;;;;;;;;;5.75;5.00;;;;;26.17;60.23;101206.19;5039618;28;45313;-63
2023/08/19 09:17:03;;;;;;;;;9.00;7.25;;;;;26.09;60.26;101215.59;5039482;28;45474;-65
2023/08/19 09:19:28;;;;;;;;;6.00;4.75;;;;;26.16;60.46;101255.44;5040100;28;45370;-65
2023/08/19 09:21:54;;;;;;;;;5.50;5.50;;;;;26.12;60.97;101239.59;5039380;28;45628;-63
2023/08/19 09:24:21;;;;;;;;;7.00;6.25;;;;;26.17;61.55;101237.50;5039125;28;45711;-63
2023/08/19 09:26:54;;;;;;;;;5.25;5.25;;;;;26.13;61.66;101262.81;5054700;28;45726;-63
2023/08/19 09:29:19;;;;;;;;;7.00;6.00;;;;;26.08;62.72;101297.06;5037979;28;46433;-64
2023/08/19 09:31:45;;;;;;;;;7.25;6.50;;;;;26.06;63.08;101299.84;5037343;28;45513;-63
2023/08/19 09:34:14;;;;;;;;;7.00;5.25;;;;;26.08;62.19;101302.44;5041153;28;45556;-64
2023/08/19 09:36:40;;;;;;;;;5.00;5.00;;;;;26.10;61.73;101295.16;5040454;28;45489;-64
2023/08/19 09:39:06;;;;;;;;;6.00;6.00;;;;;26.08;62.61;101303.31;5038917;28;45485;-65
2023/08/19 09:41:32;;;;;;;;;5.25;5.25;;;;;26.10;62.07;101320.22;5039273;28;45256;-63
2023/08/19 09:43:57;;;;;;;;;6.50;5.75;;;;;26.04;61.37;101320.53;5039123;28;45495;-64
2023/08/19 09:46:32;;;;;;;;;4.75;4.50;;;;;26.09;62.38;101318.47;5039253;28;45481;-63
2023/08/19 09:48:58;;;;;;;;;14.75;9.75;;;;;25.90;62.46;101288.22;5039127;28;45575;-63
2023/08/19 09:51:25;;;;;;;;;9.00;7.25;;;;;25.78;61.88;101311.16;5038825;28;45573;-64
2023/08/19 09:53:51;;;;;;;;;6.00;6.00;;;;;25.68;62.45;101315.28;5039651;28;45372;-65
2023/08/19 09:56:28;;;;;;;;;4.75;4.75;;;;;25.66;63.38;101318.03;5039293;28;45441;-67
2023/08/19 09:58:54;;;;;;;;;6.50;5.50;;;;;25.66;63.54;101347.53;5038615;28;47571;-64
2023/08/19 10:01:22;;;;;;;;;6.00;4.75;;;;;25.71;63.63;101342.81;5022854;28;45435;-65
2023/08/19 10:03:49;;;;;;;;;12.25;8.75;;;;;25.57;63.99;101343.50;5032142;28;45540;-63
2023/08/19 10:06:23;;;;;;;;;7.75;6.00;;;;;25.42;64.19;101330.03;5039249;28;45272;-66
2023/08/19 10:08:52;;;;;;;;;8.75;7.50;;;;;25.42;64.12;101333.56;5038829;28;45493;-64
2023/08/19 10:11:19;;;;;;;;;7.75;7.75;;;;;25.38;65.25;101326.63;5038165;28;45538;-63
2023/08/19 10:13:46;;;;;;;;;9.75;8.50;;;;;25.30;65.72;101320.78;5041776;28;45432;-67
2023/08/19 10:16:16;;;;;;;;;8.00;7.75;;;;;24.92;65.95;101288.69;5040986;28;45452;-64
2023/08/19 10:18:45;;;;;;;;;11.00;9.25;;;;;24.79;66.32;101300.94;5039080;28;45436;-65
2023/08/19 10:21:14;;;;;;;;;10.00;9.25;;;;;24.81;66.59;101334.75;5038591;28;45671;-64
2023/08/19 10:23:43;;;;;;;;;14.00;14.00;;;;;24.87;67.43;101326.44;5038924;28;45792;-65
2023/08/19 10:26:09;;;;;;;;;13.67;11.67;;;;;24.79;67.36;101341.13;5038472;28;45384;-65
2023/08/19 10:28:34;;;;;;;;;13.00;13.00;;;;;24.80;68.30;101316.09;5037284;28;45914;-64
2023/08/19 10:31:13;;;;;;;;;12.67;11.00;;;;;24.95;67.00;101334.94;5038655;28;45501;-64
2023/08/19 10:33:41;;;;;;;;;9.50;9.50;;;;;24.80;67.85;101359.81;5039072;28;45444;-65
2023/08/19 10:36:08;;;;;;;;;14.25;11.75;;;;;24.89;67.70;101363.84;5037250;28;45571;-65
2023/08/19 10:38:56;;;;;;;;;11.33;10.00;;;;;25.05;66.60;101355.94;5038504;28;45401;-64
2023/08/19 10:41:33;;;;;;;;;7.00;6.75;;;;;25.22;66.20;101356.00;5038384;28;45351;-62
2023/08/19 10:44:01;;;;;;;;;6.75;6.75;;;;;25.17;65.45;101348.19;5038735;28;45591;-64
2023/08/19 10:46:45;;;;;;;;;10.50;8.75;;;;;25.25;65.09;101341.56;5036994;28;45363;-63
2023/08/19 10:49:14;;;;;;;;;8.50;8.00;;;;;25.65;64.46;101343.13;5038209;28;46230;-63
2023/08/19 10:51:51;;;;;;;;;6.25;6.25;;;;;26.02;62.51;101336.72;5038024;28;45604;-63
2023/08/19 10:54:35;;;;;;;;;9.75;8.00;;;;;26.28;62.59;101347.88;5038401;28;45269;-63
2023/08/19 10:57:11;;;;;;;;;10.25;7.50;;;;;26.43;61.86;101339.00;5038477;28;45471;-65
2023/08/19 10:59:38;;;;;;;;;8.50;7.00;;;;;26.32;59.38;101337.84;5038471;28;45351;-63
2023/08/19 11:02:05;;;;;;;;;7.25;6.50;;;;;26.40;60.21;101344.53;5038747;28;45432;-63
2023/08/19 11:04:32;;;;;;;;;8.00;8.00;;;;;26.68;59.52;101344.88;5039098;28;45374;-64
2023/08/19 11:06:57;;;;;;;;;10.25;7.50;;;;;26.65;58.36;101338.69;5038386;28;45479;-64
2023/08/19 11:09:25;;;;;;;;;7.50;5.00;;;;;26.63;58.13;101320.94;5038269;28;46456;-63
2023/08/19 11:11:51;;;;;;;;;5.25;5.25;;;;;26.79;58.31;101345.09;5037930;28;45450;-65
2023/08/19 11:14:17;;;;;;;;;7.25;4.75;;;;;26.76;57.09;101340.78;5036767;28;45408;-65
2023/08/19 11:16:50;;;;;;;;;5.00;4.50;;;;;26.68;57.06;101340.34;5035430;28;45854;-65
2023/08/19 11:19:18;;;;;;;;;6.00;6.00;;;;;26.72;56.34;101362.53;5026580;28;46528;-63